• Join FlightAware (Why Join?)
  • Login
  • US Flag 
06:34AM EDT


 

Airport Tracker/Info


-or-


 

Live Flight TrackerFlight Track Log ✈ PDT4522 ✈ 16-Apr-2013 ✈ KUNV - KPHL

Flight Track Log - Related Links

Times and Time Zones

All times are in EDT time to prevent confusion due to time zone crossing. See the PDT4522 flight status page for this flight to view local times or setup timezone preferences in your user account.

Time Position Orientation Groundspeed Altitude Reporting Facility
EDT Latitude Longitude Course Direction KTS MPH feet Rate Location/Type
05:08PM 40.7972 -77.7533 105° East 252 290 5,100  Level New York Center
05:09PM 40.7825 -77.6806 105° East 230 265 6,200 1,080 Climbing New York Center
05:10PM 40.7681 -77.6106 105° East 210 242 7,300 1,020 Climbing New York Center
05:11PM 40.7511 -77.5403 108° East 205 236 8,300 900 Climbing New York Center
05:13PM 40.7347 -77.4619 105° East 211 243 9,200 900 Climbing New York Center
05:13PM 40.7186 -77.3783 104° East 216 249 10,100 900 Climbing New York Center
05:14PM 40.7028 -77.2892 103° East 227 261 11,000 420 Climbing New York Center
05:15PM 40.6806 -77.1967 108° East 240 276 11,000  Level New York Center
05:16PM 40.6547 -77.0986 109° East 273 314 11,100  Climbing New York Center
05:17PM 40.6328 -76.9981 106° East 279 321 11,100  Level New York Center
05:19PM 40.6131 -76.8978 104° East 279 321 11,100  Level New York Center
05:19PM 40.5950 -76.8058 104° East 279 321 11,100 -60 Level New York Center
05:20PM 40.5792 -76.7033 101° East 284 327 11,000 -60 Descending New York Center
05:21PM 40.5556 -76.5947 106° East 284 327 11,000  Level New York Center
05:23PM 40.5153 -76.5203 125° Southeast 279 321 11,000  Level New York Center
05:24PM 40.4714 -76.4403 126° Southeast 273 314 11,000  Level New York Center
05:24PM 40.4189 -76.3569 130° Southeast 266 306 11,000  Level New York Center
05:26PM 40.3692 -76.2806 130° Southeast 264 304 11,000  Level FAA TRACON SMA TRACON (SMA)
05:26PM 40.3567 -76.2544 122° Southeast 261 300 11,000  Level FAA TRACON SMA TRACON (SMA)
05:26PM 40.3433 -76.2317 128° Southeast 259 298 11,000  Level FAA TRACON SMA TRACON (SMA)
05:27PM 40.3294 -76.2033 123° Southeast 258 297 11,000  Level FAA TRACON SMA TRACON (SMA)
05:27PM 40.3131 -76.1806 133° Southeast 256 295 11,000  Level FAA TRACON SMA TRACON (SMA)
05:27PM 40.3003 -76.1575 126° Southeast 256 295 11,000  Level FAA TRACON SMA TRACON (SMA)
05:28PM 40.2844 -76.1306 128° Southeast 256 295 11,000  Level FAA TRACON SMA TRACON (SMA)
05:28PM 40.2717 -76.1044 123° Southeast 256 295 11,000  Level FAA TRACON SMA TRACON (SMA)
05:28PM 40.2603 -76.0800 121° Southeast 256 295 11,000 -180 Level FAA TRACON SMA TRACON (SMA)
05:29PM 40.2472 -76.0503 120° Southeast 257 296 10,900 -1,200 Descending FAA TRACON SMA TRACON (SMA)
05:29PM 40.2353 -76.0231 120° Southeast 261 300 10,200 -2,040 Descending FAA TRACON SMA TRACON (SMA)
05:29PM 40.2228 -75.9969 122° Southeast 268 308 9,600 -2,040 Descending FAA TRACON SMA TRACON (SMA)
05:29PM 40.2058 -75.9656 125° Southeast 272 313 8,900 -2,100 Descending FAA TRACON SMA TRACON (SMA)
05:30PM 40.1919 -75.9411 127° Southeast 273 314 8,200 -1,980 Descending FAA TRACON SMA TRACON (SMA)
05:30PM 40.1781 -75.9161 126° Southeast 273 314 7,600 -1,680 Descending FAA TRACON SMA TRACON (SMA)
05:30PM 40.1611 -75.8853 126° Southeast 272 313 7,100 -1,080 Descending FAA TRACON SMA TRACON (SMA)
05:31PM 40.1478 -75.8608 126° Southeast 270 311 6,900 -780 Descending FAA TRACON SMA TRACON (SMA)
05:31PM 40.1353 -75.8364 124° Southeast 266 306 6,600 -1,080 Descending FAA TRACON SMA TRACON (SMA)
05:31PM 40.1208 -75.8072 123° Southeast 255 293 6,200 -900 Descending FAA TRACON SMA TRACON (SMA)
05:32PM 40.1167 -75.7800 101° East 251 289 6,000 -300 Descending FAA TRACON SMA TRACON (SMA)
05:32PM 40.1164 -75.7533 91° East 240 276 6,000  Level FAA TRACON SMA TRACON (SMA)
05:33PM 40.1164 -75.7183 90° East 247 284 6,000  Level FAA TRACON SMA TRACON (SMA)
05:33PM 40.1161 -75.6897 91° East 246 283 6,000  Level FAA TRACON SMA TRACON (SMA)
05:33PM 40.1158 -75.6633 91° East 245 282 6,000  Level FAA TRACON SMA TRACON (SMA)
05:34PM 40.1164 -75.6289 89° East 247 284 6,000  Level FAA TRACON SMA TRACON (SMA)
05:34PM 40.1125 -75.6014 100° East 250 288 6,000  Level FAA TRACON SMA TRACON (SMA)
05:34PM 40.1089 -75.5736 100° East 250 288 6,000  Level FAA TRACON SMA TRACON (SMA)
05:35PM 40.1039 -75.5400 101° East 251 289 6,000  Level FAA TRACON SMA TRACON (SMA)
05:35PM 40.0997 -75.5122 101° East 251 289 6,000  Level FAA TRACON SMA TRACON (SMA)
05:35PM 40.0956 -75.4847 101° East 248 285 6,000  Level FAA TRACON SMA TRACON (SMA)
05:36PM 40.0908 -75.4506 100° East 247 284 6,000  Level FAA TRACON SMA TRACON (SMA)
05:36PM 40.0828 -75.3958 101° East 249 287 6,000  Level FAA TRACON SMA TRACON (SMA)
05:37PM 40.0775 -75.3625 102° East 248 285 6,000  Level FAA TRACON SMA TRACON (SMA)
05:37PM 40.0736 -75.3364 101° East 249 287 6,000  Level FAA TRACON SMA TRACON (SMA)
05:37PM 40.0694 -75.3072 101° East 248 285 6,000  Level FAA TRACON SMA TRACON (SMA)
05:38PM 40.0658 -75.2797 100° East 248 285 6,000  Level FAA TRACON SMA TRACON (SMA)
05:38PM 40.0611 -75.2464 100° East 248 285 6,000  Level FAA TRACON SMA TRACON (SMA)
05:38PM 40.0564 -75.2186 103° East 247 284 6,000  Level FAA TRACON SMA TRACON (SMA)
05:39PM 40.0447 -75.2022 133° Southeast 234 269 6,000  Level FAA TRACON SMA TRACON (SMA)
05:39PM 40.0219 -75.1869 153° Southeast 228 262 6,000  Level FAA TRACON SMA TRACON (SMA)
05:39PM 40.0022 -75.1756 156° South 226 260 6,000  Level FAA TRACON SMA TRACON (SMA)
05:40PM 39.9889 -75.1569 133° Southeast 235 270 6,000  Level FAA TRACON SMA TRACON (SMA)
05:40PM 39.9869 -75.1272 95° East 241 277 6,000 -300 Level FAA TRACON SMA TRACON (SMA)
05:40PM 39.9925 -75.0997 75° East 235 270 5,800 -780 Descending FAA TRACON SMA TRACON (SMA)
05:41PM 39.9975 -75.0758 75° East 234 269 5,500 -1,200 Descending FAA TRACON SMA TRACON (SMA)
05:41PM 40.0047 -75.0464 72° East 230 265 5,000 -1,380 Descending FAA TRACON SMA TRACON (SMA)
05:41PM 40.0108 -75.0189 74° East 230 265 4,600 -1,200 Descending FAA TRACON SMA TRACON (SMA)
05:42PM 40.0167 -74.9936 73° East 234 269 4,200 -900 Descending FAA TRACON SMA TRACON (SMA)
05:42PM 40.0172 -74.9622 89° East 221 254 4,000 -300 Descending FAA TRACON SMA TRACON (SMA)
05:42PM 40.0061 -74.9458 132° Southeast 195 224 4,000  Level FAA TRACON SMA TRACON (SMA)
05:43PM 39.9947 -74.9342 142° Southeast 189 217 4,000 -180 Level FAA TRACON SMA TRACON (SMA)
05:43PM 39.9783 -74.9239 154° Southeast 178 205 3,900 -780 Descending FAA TRACON SMA TRACON (SMA)
05:43PM 39.9597 -74.9328 200° South 190 219 3,500 -1,200 Descending FAA TRACON SMA TRACON (SMA)
05:44PM 39.9497 -74.9497 232° Southwest 194 223 3,100 -1,080 Descending FAA TRACON SMA TRACON (SMA)
05:44PM 39.9400 -74.9700 238° Southwest 185 213 2,800 -780 Descending FAA TRACON SMA TRACON (SMA)
05:44PM 39.9328 -74.9894 244° Southwest 178 205 2,600 -480 Descending FAA TRACON SMA TRACON (SMA)
05:45PM 39.9275 -75.0067 248° West 167 192 2,500 -480 Descending FAA TRACON SMA TRACON (SMA)
05:45PM 39.9214 -75.0242 246° West 170 196 2,300 -480 Descending FAA TRACON SMA TRACON (SMA)
05:45PM 39.9150 -75.0461 249° West 168 193 2,200 -480 Descending FAA TRACON SMA TRACON (SMA)
05:46PM 39.9103 -75.0642 251° West 170 196 2,000 -600 Descending FAA TRACON SMA TRACON (SMA)
05:46PM 39.9056 -75.0831 252° West 174 200 1,800 -480 Descending FAA TRACON SMA TRACON (SMA)
05:46PM 39.9006 -75.1058 254° West 175 201 1,700 -300 Descending FAA TRACON SMA TRACON (SMA)
05:47PM 39.8972 -75.1250 257° West 172 198 1,600 -480 Descending FAA TRACON SMA TRACON (SMA)
05:47PM 39.8936 -75.1428 255° West 168 193 1,400 -780 Descending FAA TRACON SMA TRACON (SMA)
05:47PM 39.8897 -75.1611 255° West 133 153 1,100 -780 Descending FAA TRACON SMA TRACON (SMA)
05:48PM 39.8867 -75.1742 253° West 123 142 900 -780 Descending FAA TRACON SMA TRACON (SMA)
05:48PM 39.8836 -75.1856 251° West 111 128 600 -780 Descending FAA TRACON SMA TRACON (SMA)
05:48PM 39.8797 -75.2003 251° West 110 127 400 -600 Descending FAA TRACON SMA TRACON (SMA)
05:49PM 39.8772 -75.2125 255° West 111 128 200 -480 Descending FAA TRACON SMA TRACON (SMA)
05:49PM 39.8767 -75.2153 255° West 111 128 100 -300 Descending FAA TRACON SMA TRACON (SMA)
05:51PM 39.8667 -75.2333 169° South  Level FlightAware Approximate